Terminal Aerodrome Forecast
Issued by NWS

Home | Current Version | Previous Version | Text Only | Print | Product List | Glossary On
Versions: 1 2 3 4 5 6 7 8 9 10 11 12 13 14 15 16 17 18 19 20 21
000
FTUS43 KLSX 280500
TAFSUS
TAF
KSUS 280537Z 2806/0106 07008KT P6SM OVC090
     FM281400 12006KT P6SM OVC040
     FM282000 12007KT 5SM -SN OVC025
     FM010000 12005KT 1SM -SN OVC008=

USA.gov is the U.S. government's official web portal to all federal, state and local government web resources and services.